createdAt,value
2023-09-08T00:00:18.838Z,4.45
2023-09-08T00:02:45.622Z,4.78
2023-09-08T00:05:12.408Z,5.10
2023-09-08T00:07:39.173Z,4.85
2023-09-08T00:10:06.499Z,4.80
2023-09-08T00:12:33.416Z,4.53
2023-09-08T00:15:00.400Z,4.85
2023-09-08T00:17:27.189Z,4.95
2023-09-08T00:19:54.001Z,5.63
2023-09-08T00:22:20.770Z,4.97
2023-09-08T00:24:47.684Z,5.75
2023-09-08T00:27:14.442Z,4.32
2023-09-08T00:29:41.223Z,4.40
2023-09-08T00:32:08.178Z,4.95
2023-09-08T00:34:34.938Z,4.85
2023-09-08T00:37:07.986Z,4.70
2023-09-08T00:39:38.954Z,4.65
2023-09-08T00:42:07.941Z,5.03
2023-09-08T00:44:35.390Z,5.35
2023-09-08T00:47:02.290Z,5.43
2023-09-08T00:49:29.757Z,4.93
2023-09-08T00:51:56.854Z,5.13
2023-09-08T00:54:23.926Z,4.53
2023-09-08T00:56:56.516Z,5.55
2023-09-08T00:59:23.631Z,5.67
2023-09-08T01:01:50.610Z,5.15
2023-09-08T01:04:17.524Z,5.15
2023-09-08T01:06:46.398Z,5.43
2023-09-08T01:09:14.316Z,5.20
2023-09-08T01:11:42.192Z,5.28
2023-09-08T01:14:12.631Z,5.43
2023-09-08T01:16:41.469Z,5.35
2023-09-08T01:19:13.777Z,4.75
2023-09-08T01:21:59.046Z,5.10
2023-09-08T01:24:31.609Z,4.50
2023-09-08T01:26:58.728Z,5.00
2023-09-08T01:29:27.441Z,4.55
2023-09-08T01:31:54.634Z,5.32
2023-09-08T01:34:21.577Z,4.97
2023-09-08T01:36:48.798Z,5.28
2023-09-08T01:39:15.636Z,4.88
2023-09-08T01:41:42.380Z,4.95
2023-09-08T01:44:11.412Z,4.35
2023-09-08T01:46:39.653Z,4.35
2023-09-08T01:49:06.608Z,5.25
2023-09-08T01:51:33.542Z,4.55
2023-09-08T01:54:00.356Z,5.15
2023-09-08T01:56:27.302Z,5.15
2023-09-08T01:58:54.127Z,5.13
2023-09-08T02:01:21.021Z,5.00
2023-09-08T02:03:47.937Z,5.03
2023-09-08T02:06:14.762Z,4.38
2023-09-08T02:08:41.603Z,5.13
2023-09-08T02:11:08.428Z,4.95
2023-09-08T02:13:35.211Z,4.55
2023-09-08T02:16:02.197Z,4.18
2023-09-08T02:18:29.704Z,4.65
2023-09-08T02:20:56.561Z,5.15
2023-09-08T02:23:23.387Z,5.28
2023-09-08T02:25:50.171Z,4.97
2023-09-08T02:28:17.013Z,5.15
2023-09-08T02:30:43.821Z,4.85
2023-09-08T02:33:10.707Z,5.10
2023-09-08T02:35:41.708Z,4.47
2023-09-08T02:38:08.488Z,4.82
2023-09-08T02:40:35.594Z,5.53
2023-09-08T02:43:03.658Z,5.05
2023-09-08T02:45:32.140Z,5.55
2023-09-08T02:47:59.962Z,4.75
2023-09-08T02:50:26.820Z,5.00
2023-09-08T02:52:54.192Z,4.93
2023-09-08T02:55:21.172Z,4.75
2023-09-08T02:57:47.926Z,5.07
2023-09-08T03:00:15.099Z,5.18
2023-09-08T03:02:42.030Z,5.35
2023-09-08T03:05:09.143Z,5.05
2023-09-08T03:07:38.434Z,5.13
2023-09-08T03:10:06.274Z,5.15
2023-09-08T03:12:33.387Z,4.72
2023-09-08T03:15:01.767Z,5.00
2023-09-08T03:17:29.591Z,5.43
2023-09-08T03:19:56.681Z,4.70
2023-09-08T03:22:25.819Z,4.60
2023-09-08T03:24:53.400Z,4.50
2023-09-08T03:27:20.252Z,5.18
2023-09-08T03:29:47.007Z,4.95
2023-09-08T03:32:13.923Z,4.80
2023-09-08T03:34:41.101Z,5.20
2023-09-08T03:37:08.022Z,5.07
2023-09-08T03:39:34.797Z,5.03
2023-09-08T03:42:02.477Z,5.57
2023-09-08T03:44:29.624Z,5.15
2023-09-08T03:46:56.424Z,4.45
2023-09-08T03:49:23.263Z,4.90
2023-09-08T03:51:50.087Z,4.82
2023-09-08T03:54:16.866Z,4.95
2023-09-08T03:56:43.628Z,5.57
2023-09-08T03:59:10.388Z,4.82
2023-09-08T04:01:37.219Z,4.57
2023-09-08T04:04:04.311Z,4.38
2023-09-08T04:06:31.191Z,4.93
2023-09-08T04:08:57.988Z,5.68
2023-09-08T04:11:24.826Z,5.60
2023-09-08T04:13:51.576Z,5.53
2023-09-08T04:16:18.568Z,6.03
2023-09-08T04:18:45.953Z,5.13
2023-09-08T04:21:12.877Z,5.40
2023-09-08T04:23:40.220Z,5.78
2023-09-08T04:26:07.229Z,6.25
2023-09-08T04:28:33.997Z,6.05
2023-09-08T04:31:00.816Z,6.60
2023-09-08T04:33:27.707Z,5.80
2023-09-08T04:35:54.568Z,5.70
2023-09-08T04:38:21.352Z,5.95
2023-09-08T04:40:48.192Z,6.00
2023-09-08T04:43:15.123Z,5.93
2023-09-08T04:45:42.158Z,6.13
2023-09-08T04:48:09.055Z,5.80
2023-09-08T04:50:35.888Z,5.85
2023-09-08T04:53:02.679Z,5.90
2023-09-08T04:55:30.107Z,6.30
2023-09-08T04:57:56.875Z,6.80
2023-09-08T05:00:23.761Z,6.53
2023-09-08T05:02:50.606Z,6.32
2023-09-08T05:05:17.574Z,6.28
2023-09-08T05:07:44.392Z,5.68
2023-09-08T05:10:11.313Z,5.43
2023-09-08T05:12:38.261Z,4.90
2023-09-08T05:15:11.362Z,5.38
2023-09-08T05:17:38.269Z,5.60
2023-09-08T05:20:05.839Z,6.00
2023-09-08T05:22:33.254Z,5.70
2023-09-08T05:25:00.100Z,6.20
2023-09-08T05:27:26.941Z,6.05
2023-09-08T05:29:53.856Z,6.00
2023-09-08T05:32:20.805Z,6.35
2023-09-08T05:34:47.577Z,6.65
2023-09-08T05:37:14.364Z,6.18
2023-09-08T05:39:42.284Z,6.60
2023-09-08T05:42:09.214Z,7.35
2023-09-08T05:44:36.376Z,6.55
2023-09-08T05:47:03.913Z,6.50
2023-09-08T05:49:31.018Z,5.95
2023-09-08T05:51:57.856Z,7.03
2023-09-08T05:54:24.680Z,6.75
2023-09-08T05:56:51.523Z,6.90
2023-09-08T05:59:18.269Z,7.50
2023-09-08T06:01:45.105Z,7.18
2023-09-08T06:04:11.972Z,7.15
2023-09-08T06:06:38.791Z,7.32
2023-09-08T06:09:08.908Z,7.60
2023-09-08T06:11:35.742Z,7.05
2023-09-08T06:14:02.521Z,7.32
2023-09-08T06:16:29.417Z,8.00
2023-09-08T06:18:56.326Z,7.15
2023-09-08T06:21:23.200Z,7.07
2023-09-08T06:23:50.334Z,8.30
2023-09-08T06:26:17.334Z,7.78
2023-09-08T06:28:45.089Z,8.05
2023-09-08T06:31:12.051Z,9.30
2023-09-08T06:33:38.993Z,9.52
2023-09-08T06:36:06.283Z,9.05
2023-09-08T06:38:33.503Z,8.68
2023-09-08T06:41:01.834Z,8.68
2023-09-08T06:43:29.029Z,8.38
2023-09-08T06:45:55.882Z,8.68
2023-09-08T06:48:22.769Z,8.27
2023-09-08T06:50:49.659Z,8.00
2023-09-08T06:53:16.535Z,9.27
2023-09-08T06:55:45.602Z,8.32
2023-09-08T06:58:13.172Z,9.13
2023-09-08T07:00:40.599Z,7.78
2023-09-08T07:03:09.296Z,7.97
2023-09-08T07:05:36.716Z,7.88
2023-09-08T07:08:03.715Z,7.30
2023-09-08T07:10:30.632Z,7.75
2023-09-08T07:12:57.437Z,6.60
2023-09-08T07:15:24.257Z,7.25
2023-09-08T07:17:51.238Z,7.07
2023-09-08T07:20:19.019Z,6.70
2023-09-08T07:22:45.879Z,6.53
2023-09-08T07:25:12.759Z,6.07
2023-09-08T07:27:39.563Z,6.20
2023-09-08T07:30:07.349Z,5.72
2023-09-08T07:32:34.494Z,5.10
2023-09-08T07:35:01.414Z,5.20
2023-09-08T07:37:28.450Z,5.57
2023-09-08T07:39:56.183Z,5.43
2023-09-08T07:42:26.686Z,5.40
2023-09-08T07:44:53.512Z,6.13
2023-09-08T07:47:20.324Z,5.30
2023-09-08T07:49:48.987Z,5.15
2023-09-08T07:52:15.807Z,4.53
2023-09-08T07:54:42.593Z,5.10
2023-09-08T07:57:09.664Z,5.30
2023-09-08T07:59:38.022Z,5.13
2023-09-08T08:02:05.243Z,4.90
2023-09-08T08:04:32.197Z,4.70
2023-09-08T08:06:59.059Z,4.88
2023-09-08T08:09:25.971Z,4.93
2023-09-08T08:11:52.877Z,5.82
2023-09-08T08:14:19.887Z,5.43
2023-09-08T08:16:46.778Z,4.68
2023-09-08T08:19:13.599Z,4.22
2023-09-08T08:21:43.232Z,4.32
2023-09-08T08:24:10.237Z,4.53
2023-09-08T08:26:37.074Z,4.63
2023-09-08T08:29:04.547Z,4.95
2023-09-08T08:31:31.344Z,4.45
2023-09-08T08:33:58.165Z,4.18
2023-09-08T08:36:24.973Z,4.18
2023-09-08T08:38:51.757Z,4.63
2023-09-08T08:41:20.776Z,4.22
2023-09-08T08:43:49.570Z,4.75
2023-09-08T08:46:17.867Z,4.88
2023-09-08T08:48:46.730Z,4.57
2023-09-08T08:51:14.460Z,4.40
2023-09-08T08:53:41.853Z,4.50
2023-09-08T08:56:10.348Z,4.70
2023-09-08T08:58:40.059Z,4.60
2023-09-08T09:01:08.567Z,4.30
2023-09-08T09:03:38.982Z,4.25
2023-09-08T09:06:05.982Z,4.35
2023-09-08T09:08:33.532Z,4.07
2023-09-08T09:11:00.650Z,4.57
2023-09-08T09:13:27.559Z,4.05
2023-09-08T09:16:04.558Z,4.38
2023-09-08T09:18:32.449Z,4.40
2023-09-08T09:21:03.599Z,4.32
2023-09-08T09:23:32.604Z,4.53
2023-09-08T09:26:00.869Z,4.72
2023-09-08T09:28:29.992Z,4.53
2023-09-08T09:30:58.048Z,5.22
2023-09-08T09:33:24.993Z,4.43
2023-09-08T09:35:53.156Z,4.35
2023-09-08T09:38:21.637Z,4.45
2023-09-08T09:40:50.252Z,4.70
2023-09-08T09:43:18.568Z,4.45
2023-09-08T09:45:45.966Z,4.43
2023-09-08T09:48:21.536Z,4.05
2023-09-08T09:50:48.332Z,4.63
2023-09-08T09:53:16.861Z,4.43
2023-09-08T09:55:45.287Z,4.80
2023-09-08T09:58:13.105Z,4.20
2023-09-08T10:00:48.385Z,5.03
2023-09-08T10:03:15.768Z,4.80
2023-09-08T10:05:42.592Z,4.20
2023-09-08T10:08:09.524Z,4.40
2023-09-08T10:10:40.166Z,4.55
2023-09-08T10:13:08.391Z,3.75
2023-09-08T10:15:36.757Z,4.05
2023-09-08T10:18:06.689Z,3.95
2023-09-08T10:20:34.966Z,4.28
2023-09-08T10:23:23.360Z,4.13
2023-09-08T10:25:55.671Z,4.10
2023-09-08T10:28:23.741Z,4.25
2023-09-08T10:30:52.762Z,4.40
2023-09-08T10:33:24.257Z,4.47
2023-09-08T10:35:54.676Z,3.95
2023-09-08T10:38:30.225Z,3.83
2023-09-08T10:41:30.122Z,4.20
2023-09-08T10:44:01.552Z,4.50
2023-09-08T10:46:31.978Z,4.30
2023-09-08T10:49:08.824Z,4.00
2023-09-08T10:51:36.477Z,4.35
2023-09-08T10:54:04.513Z,4.65
2023-09-08T10:56:52.322Z,4.15
2023-09-08T10:59:19.857Z,3.80
2023-09-08T11:01:48.843Z,4.10
2023-09-08T11:04:20.233Z,3.22
2023-09-08T11:06:47.280Z,3.95
2023-09-08T11:09:14.156Z,3.72
2023-09-08T11:11:41.023Z,3.75
2023-09-08T11:14:08.195Z,3.92
2023-09-08T11:16:36.430Z,3.60
2023-09-08T11:19:05.777Z,3.60
2023-09-08T11:21:36.245Z,3.08
2023-09-08T11:24:05.554Z,3.60
2023-09-08T11:26:36.214Z,3.40
2023-09-08T11:29:04.366Z,3.60
2023-09-08T11:31:31.282Z,3.53
2023-09-08T11:34:00.598Z,3.58
2023-09-08T11:36:27.448Z,3.80
2023-09-08T11:38:54.253Z,3.53
2023-09-08T11:41:24.598Z,3.40
2023-09-08T11:43:53.152Z,3.67
2023-09-08T11:46:20.605Z,3.05
2023-09-08T11:48:47.905Z,3.53
2023-09-08T11:51:14.685Z,3.55
2023-09-08T11:53:43.614Z,3.60
2023-09-08T11:56:10.609Z,3.60
2023-09-08T11:58:38.298Z,3.33
2023-09-08T12:01:05.992Z,3.22
2023-09-08T12:03:32.986Z,3.60
2023-09-08T12:06:03.012Z,3.40
2023-09-08T12:08:30.358Z,3.35
2023-09-08T12:10:57.213Z,3.25
2023-09-08T12:13:32.986Z,3.20
2023-09-08T12:16:00.371Z,3.20
2023-09-08T12:18:41.831Z,3.47
2023-09-08T12:21:09.118Z,3.38
2023-09-08T12:23:47.414Z,3.40
2023-09-08T12:26:14.988Z,3.35
2023-09-08T12:28:44.741Z,3.40
2023-09-08T12:31:13.543Z,3.45
2023-09-08T12:33:46.153Z,3.70
2023-09-08T12:36:20.341Z,3.22
2023-09-08T12:38:53.411Z,3.47
2023-09-08T12:41:21.404Z,3.22
2023-09-08T12:43:48.360Z,3.38
2023-09-08T12:46:19.232Z,3.00
2023-09-08T12:48:47.048Z,3.50
2023-09-08T12:51:17.043Z,2.72
2023-09-08T12:53:43.875Z,3.15
2023-09-08T12:56:10.743Z,3.15
2023-09-08T12:58:37.786Z,3.05
2023-09-08T13:01:07.714Z,2.90
2023-09-08T13:03:34.616Z,3.28
2023-09-08T13:06:01.509Z,3.30
2023-09-08T13:08:28.370Z,3.17
2023-09-08T13:10:55.295Z,3.13
2023-09-08T13:13:22.055Z,3.17
2023-09-08T13:15:50.717Z,3.30
2023-09-08T13:18:17.545Z,3.03
2023-09-08T13:20:44.393Z,3.40
2023-09-08T13:23:11.197Z,3.17
2023-09-08T13:25:37.976Z,2.97
2023-09-08T13:28:05.039Z,2.78
2023-09-08T13:30:31.807Z,3.30
2023-09-08T13:32:58.596Z,3.25
2023-09-08T13:35:25.455Z,2.78
2023-09-08T13:37:52.315Z,3.20
2023-09-08T13:40:19.241Z,2.97
2023-09-08T13:42:46.053Z,3.10
2023-09-08T13:45:13.030Z,3.40
2023-09-08T13:47:40.379Z,3.20
2023-09-08T13:50:10.015Z,3.15
2023-09-08T13:52:38.502Z,2.92
2023-09-08T13:57:40.493Z,3.08
2023-09-08T14:00:15.709Z,3.03
2023-09-08T14:02:44.566Z,2.85
2023-09-08T14:05:18.664Z,3.30
2023-09-08T14:07:55.295Z,3.28
2023-09-08T14:12:54.208Z,3.17
2023-09-08T14:15:21.140Z,3.08
2023-09-08T14:17:48.009Z,3.00
2023-09-08T14:20:14.939Z,2.97
2023-09-08T14:22:41.845Z,3.05
2023-09-08T14:25:09.371Z,2.80
2023-09-08T14:27:37.720Z,3.25
2023-09-08T14:30:06.483Z,2.95
2023-09-08T14:32:33.875Z,3.00
2023-09-08T14:35:00.617Z,3.13
2023-09-08T14:37:27.366Z,2.92
2023-09-08T14:39:54.101Z,3.40
2023-09-08T14:42:20.894Z,3.40
2023-09-08T14:44:47.671Z,3.20
2023-09-08T14:47:14.455Z,3.10
2023-09-08T14:49:41.222Z,3.30
2023-09-08T14:52:07.980Z,3.00
2023-09-08T14:54:34.834Z,3.63
2023-09-08T14:57:01.680Z,2.88
2023-09-08T14:59:28.945Z,3.38
2023-09-08T15:01:55.987Z,3.50
2023-09-08T15:04:23.258Z,3.20
2023-09-08T15:06:50.313Z,3.28
2023-09-08T15:09:17.107Z,3.28
2023-09-08T15:11:44.312Z,3.50
2023-09-08T15:14:11.166Z,3.22
2023-09-08T15:16:38.638Z,3.33
2023-09-08T15:19:05.526Z,3.63
2023-09-08T15:21:34.207Z,3.15
2023-09-08T15:24:01.245Z,3.55
2023-09-08T15:26:28.340Z,3.60
2023-09-08T15:28:55.686Z,3.42
2023-09-08T15:31:22.668Z,3.58
2023-09-08T15:33:49.629Z,3.70
2023-09-08T15:36:16.537Z,3.50
2023-09-08T15:38:43.385Z,3.65
2023-09-08T15:41:13.683Z,3.55
2023-09-08T15:43:41.870Z,3.78
2023-09-08T15:46:09.653Z,3.47
2023-09-08T15:48:40.356Z,3.30
2023-09-08T15:51:09.373Z,3.25
2023-09-08T15:53:36.803Z,3.50
2023-09-08T15:56:04.467Z,3.45
2023-09-08T15:58:31.324Z,3.35
2023-09-08T16:00:58.127Z,3.90
2023-09-08T16:03:25.118Z,3.42
2023-09-08T16:05:51.970Z,3.65
2023-09-08T16:08:18.859Z,3.17
2023-09-08T16:10:47.187Z,3.47
2023-09-08T16:13:13.957Z,3.33
2023-09-08T16:15:40.747Z,3.40
2023-09-08T16:18:10.737Z,3.80
2023-09-08T16:20:39.218Z,3.83
2023-09-08T16:23:06.224Z,3.75
2023-09-08T16:25:33.263Z,4.53
2023-09-08T16:28:00.567Z,4.45
2023-09-08T16:30:28.026Z,3.95
2023-09-08T16:32:54.847Z,3.60
2023-09-08T16:35:21.753Z,3.58
2023-09-08T16:37:48.518Z,4.18
2023-09-08T16:40:15.533Z,4.00
2023-09-08T16:42:42.459Z,3.67
2023-09-08T16:45:09.744Z,3.75
2023-09-08T16:47:37.164Z,3.83
2023-09-08T16:50:05.923Z,4.20
2023-09-08T16:52:32.934Z,3.90
2023-09-08T16:54:59.839Z,4.10
2023-09-08T16:57:26.691Z,4.43
2023-09-08T16:59:53.711Z,3.78
2023-09-08T17:02:20.740Z,3.80
2023-09-08T17:04:47.642Z,4.10
2023-09-08T17:07:15.892Z,4.88
2023-09-08T17:09:43.043Z,4.15
2023-09-08T17:12:10.786Z,5.00
2023-09-08T17:14:37.750Z,4.68
2023-09-08T17:17:04.772Z,4.38
2023-09-08T17:19:31.616Z,4.13
2023-09-08T17:21:59.269Z,4.05
2023-09-08T17:24:27.168Z,4.03
2023-09-08T17:26:55.226Z,4.32
2023-09-08T17:29:22.339Z,4.15
2023-09-08T17:31:49.286Z,4.30
2023-09-08T17:34:21.091Z,3.95
2023-09-08T17:36:48.789Z,4.00
2023-09-08T17:39:15.826Z,4.10
2023-09-08T17:41:43.020Z,4.20
2023-09-08T17:44:09.940Z,4.43
2023-09-08T17:46:36.996Z,4.50
2023-09-08T17:49:03.972Z,4.32
2023-09-08T17:51:30.968Z,4.45
2023-09-08T17:53:57.734Z,5.03
2023-09-08T17:56:24.521Z,4.90
2023-09-08T17:58:51.473Z,4.43
2023-09-08T18:01:18.332Z,4.93
2023-09-08T18:03:48.529Z,4.80
2023-09-08T18:06:15.738Z,4.65
2023-09-08T18:08:42.545Z,4.32
2023-09-08T18:11:09.522Z,4.72
2023-09-08T18:13:36.823Z,5.13
2023-09-08T18:16:04.602Z,5.13
2023-09-08T18:18:33.632Z,5.10
2023-09-08T18:21:00.460Z,5.30
2023-09-08T18:23:27.424Z,4.75
2023-09-08T18:25:55.742Z,4.85
2023-09-08T18:28:23.286Z,4.43
2023-09-08T18:30:51.904Z,5.15
2023-09-08T18:33:18.942Z,4.75
2023-09-08T18:35:46.858Z,4.97
2023-09-08T18:38:13.754Z,4.97
2023-09-08T18:40:53.119Z,5.25
2023-09-08T18:43:20.288Z,5.05
2023-09-08T18:45:47.958Z,4.97
2023-09-08T18:48:14.912Z,4.97
2023-09-08T18:50:44.787Z,5.35
2023-09-08T18:53:12.169Z,4.97
2023-09-08T18:55:39.220Z,5.40
2023-09-08T18:58:06.548Z,5.07
2023-09-08T19:00:37.217Z,5.95
2023-09-08T19:03:04.368Z,5.13
2023-09-08T19:05:34.308Z,4.97
2023-09-08T19:08:02.114Z,5.25
2023-09-08T19:10:35.059Z,5.05
2023-09-08T19:13:05.969Z,4.65
2023-09-08T19:15:38.049Z,5.93
2023-09-08T19:18:07.082Z,5.00
2023-09-08T19:20:34.068Z,5.82
2023-09-08T19:23:02.632Z,6.60
2023-09-08T19:25:29.762Z,5.30
2023-09-08T19:27:57.485Z,5.55
2023-09-08T19:30:24.339Z,5.95
2023-09-08T19:32:51.269Z,5.50
2023-09-08T19:35:18.325Z,5.10
2023-09-08T19:37:45.900Z,5.05
2023-09-08T19:40:12.942Z,5.45
2023-09-08T19:42:42.820Z,5.75
2023-09-08T19:45:10.413Z,5.55
2023-09-08T19:47:38.145Z,5.50
2023-09-08T19:50:05.904Z,5.78
2023-09-08T19:52:32.826Z,5.93
2023-09-08T19:54:59.564Z,5.43
2023-09-08T19:57:26.283Z,5.65
2023-09-08T19:59:53.019Z,5.65
2023-09-08T20:02:19.869Z,6.20
2023-09-08T20:04:46.937Z,5.95
2023-09-08T20:07:13.778Z,5.40
2023-09-08T20:09:40.508Z,6.13
2023-09-08T20:12:07.474Z,5.60
2023-09-08T20:14:34.199Z,6.07
2023-09-08T20:17:00.971Z,6.65
2023-09-08T20:19:27.765Z,6.35
2023-09-08T20:21:54.759Z,5.88
2023-09-08T20:24:21.631Z,5.82
2023-09-08T20:26:48.554Z,6.10
2023-09-08T20:29:15.914Z,6.00
2023-09-08T20:31:42.767Z,6.43
2023-09-08T20:34:15.378Z,5.90
2023-09-08T20:36:42.124Z,6.10
2023-09-08T20:39:09.562Z,5.45
2023-09-08T20:41:36.535Z,5.60
2023-09-08T20:44:03.511Z,5.65
2023-09-08T20:46:30.332Z,5.93
2023-09-08T20:48:57.388Z,6.18
2023-09-08T20:51:24.155Z,5.85
2023-09-08T20:53:50.991Z,6.07
2023-09-08T20:56:17.748Z,6.05
2023-09-08T20:58:44.881Z,5.97
2023-09-08T21:01:12.079Z,6.22
2023-09-08T21:03:39.872Z,6.93
2023-09-08T21:06:07.307Z,6.22
2023-09-08T21:08:34.228Z,6.07
2023-09-08T21:11:01.094Z,7.05
2023-09-08T21:13:28.218Z,6.53
2023-09-08T21:15:55.237Z,6.80
2023-09-08T21:18:22.230Z,5.88
2023-09-08T21:20:49.546Z,6.53
2023-09-08T21:23:17.118Z,5.70
2023-09-08T21:25:43.914Z,6.13
2023-09-08T21:28:10.857Z,6.32
2023-09-08T21:30:37.674Z,5.43
2023-09-08T21:33:04.825Z,6.53
2023-09-08T21:35:32.107Z,6.35
2023-09-08T21:37:59.054Z,7.07
2023-09-08T21:40:26.003Z,6.78
2023-09-08T21:42:52.954Z,6.40
2023-09-08T21:45:19.871Z,6.43
2023-09-08T21:47:51.143Z,6.20
2023-09-08T21:50:18.729Z,6.35
2023-09-08T21:52:45.836Z,6.85
2023-09-08T21:55:12.748Z,6.60
2023-09-08T21:57:39.513Z,6.85
2023-09-08T22:00:07.150Z,6.95
2023-09-08T22:02:34.993Z,7.32
2023-09-08T22:05:02.147Z,6.93
2023-09-08T22:07:30.874Z,5.97
2023-09-08T22:09:57.654Z,6.53
2023-09-08T22:12:24.449Z,6.32
2023-09-08T22:14:51.212Z,6.63
2023-09-08T22:17:18.034Z,6.90
2023-09-08T22:19:45.565Z,7.05
2023-09-08T22:22:12.630Z,6.65
2023-09-08T22:24:39.458Z,6.25
2023-09-08T22:27:07.122Z,7.68
2023-09-08T22:29:33.907Z,8.13
2023-09-08T22:32:00.788Z,7.07
2023-09-08T22:34:27.704Z,7.13
2023-09-08T22:36:54.656Z,6.70
2023-09-08T22:39:21.606Z,7.07
2023-09-08T22:41:48.607Z,7.15
2023-09-08T22:44:15.432Z,6.43
2023-09-08T22:46:42.275Z,7.13
2023-09-08T22:49:09.430Z,6.65
2023-09-08T22:51:36.294Z,6.45
2023-09-08T22:54:04.006Z,6.70
2023-09-08T22:56:31.235Z,6.90
2023-09-08T22:58:58.360Z,6.88
2023-09-08T23:01:25.906Z,6.38
2023-09-08T23:03:52.945Z,7.30
2023-09-08T23:06:19.911Z,7.32
2023-09-08T23:08:46.892Z,6.75
2023-09-08T23:11:13.859Z,6.68
2023-09-08T23:13:41.228Z,7.28
2023-09-08T23:16:13.013Z,7.15
2023-09-08T23:18:39.996Z,6.07
2023-09-08T23:21:06.859Z,5.85
2023-09-08T23:23:34.752Z,6.10
2023-09-08T23:26:03.856Z,7.45
2023-09-08T23:28:30.626Z,7.57
2023-09-08T23:30:57.495Z,7.32
2023-09-08T23:33:24.343Z,6.78
2023-09-08T23:35:51.202Z,6.97
2023-09-08T23:38:17.982Z,6.32
2023-09-08T23:40:44.809Z,7.00
2023-09-08T23:43:12.229Z,6.32
2023-09-08T23:45:45.165Z,7.25
2023-09-08T23:48:12.427Z,6.32
2023-09-08T23:50:49.782Z,6.93
2023-09-08T23:53:16.770Z,6.80
2023-09-08T23:55:43.584Z,7.15
2023-09-08T23:58:10.358Z,6.43
